sensor_id;sensor_type;location;lat;lon;timestamp;pressure;altitude;pressure_sealevel;temperature;humidity
19624;BME280;9959;49.798;9.928;2023-06-10T00:00:29;99357.31;;;16.60;76.21
19624;BME280;9959;49.798;9.928;2023-06-10T00:02:58;99356.50;;;16.59;76.74
19624;BME280;9959;49.798;9.928;2023-06-10T00:05:26;99361.56;;;16.51;77.90
19624;BME280;9959;49.798;9.928;2023-06-10T00:07:56;99354.66;;;16.38;78.92
19624;BME280;9959;49.798;9.928;2023-06-10T00:10:24;99359.28;;;16.38;79.07
19624;BME280;9959;49.798;9.928;2023-06-10T00:12:52;99351.91;;;16.33;79.22
19624;BME280;9959;49.798;9.928;2023-06-10T00:15:19;99357.34;;;16.33;79.16
19624;BME280;9959;49.798;9.928;2023-06-10T00:17:46;99351.69;;;16.40;78.50
19624;BME280;9959;49.798;9.928;2023-06-10T00:20:13;99345.72;;;16.70;77.32
19624;BME280;9959;49.798;9.928;2023-06-10T00:22:40;99353.09;;;16.47;77.89
19624;BME280;9959;49.798;9.928;2023-06-10T00:25:09;99354.13;;;16.41;78.37
19624;BME280;9959;49.798;9.928;2023-06-10T00:27:37;99354.00;;;16.26;79.20
19624;BME280;9959;49.798;9.928;2023-06-10T00:30:05;99354.44;;;16.18;79.04
19624;BME280;9959;49.798;9.928;2023-06-10T00:32:34;99356.91;;;16.19;80.40
19624;BME280;9959;49.798;9.928;2023-06-10T00:35:03;99354.94;;;16.15;81.35
19624;BME280;9959;49.798;9.928;2023-06-10T00:37:30;99361.19;;;16.15;80.03
19624;BME280;9959;49.798;9.928;2023-06-10T00:39:57;99360.34;;;16.10;81.39
19624;BME280;9959;49.798;9.928;2023-06-10T00:42:23;99364.09;;;16.31;80.04
19624;BME280;9959;49.798;9.928;2023-06-10T00:44:51;99358.13;;;16.07;81.23
19624;BME280;9959;49.798;9.928;2023-06-10T00:47:19;99362.94;;;16.00;82.35
19624;BME280;9959;49.798;9.928;2023-06-10T00:49:47;99357.88;;;15.86;82.95
19624;BME280;9959;49.798;9.928;2023-06-10T00:52:16;99359.50;;;15.87;81.24
19624;BME280;9959;49.798;9.928;2023-06-10T00:54:44;99355.13;;;15.81;81.25
19624;BME280;9959;49.798;9.928;2023-06-10T00:57:12;99362.31;;;15.93;80.97
19624;BME280;9959;49.798;9.928;2023-06-10T00:59:41;99360.88;;;15.85;81.56
19624;BME280;9959;49.798;9.928;2023-06-10T01:02:10;99363.13;;;15.71;82.24
19624;BME280;9959;49.798;9.928;2023-06-10T01:04:36;99364.19;;;15.70;82.43
19624;BME280;9959;49.798;9.928;2023-06-10T01:07:17;99363.06;;;15.66;82.51
19624;BME280;9959;49.798;9.928;2023-06-10T01:09:50;99369.78;;;15.59;83.27
19624;BME280;9959;49.798;9.928;2023-06-10T01:15:04;99360.63;;;15.48;84.21
19624;BME280;9959;49.798;9.928;2023-06-10T01:17:31;99365.47;;;15.46;84.23
19624;BME280;9959;49.798;9.928;2023-06-10T01:19:58;99364.78;;;15.72;83.48
19624;BME280;9959;49.798;9.928;2023-06-10T01:22:26;99361.13;;;15.45;85.21
19624;BME280;9959;49.798;9.928;2023-06-10T01:24:59;99370.03;;;15.57;84.13
19624;BME280;9959;49.798;9.928;2023-06-10T01:27:29;99368.94;;;15.41;84.67
19624;BME280;9959;49.798;9.928;2023-06-10T01:30:05;99367.09;;;15.25;84.97
19624;BME280;9959;49.798;9.928;2023-06-10T01:32:37;99364.44;;;15.30;84.84
19624;BME280;9959;49.798;9.928;2023-06-10T01:35:08;99362.00;;;15.29;84.71
19624;BME280;9959;49.798;9.928;2023-06-10T01:37:37;99364.63;;;15.23;84.74
19624;BME280;9959;49.798;9.928;2023-06-10T01:40:07;99363.56;;;15.24;84.81
19624;BME280;9959;49.798;9.928;2023-06-10T01:42:35;99362.97;;;15.22;85.42
19624;BME280;9959;49.798;9.928;2023-06-10T01:45:02;99364.22;;;15.32;85.27
19624;BME280;9959;49.798;9.928;2023-06-10T01:47:29;99360.19;;;15.17;86.23
19624;BME280;9959;49.798;9.928;2023-06-10T01:49:56;99366.59;;;15.11;86.85
19624;BME280;9959;49.798;9.928;2023-06-10T01:52:24;99366.34;;;15.30;85.22
19624;BME280;9959;49.798;9.928;2023-06-10T01:54:51;99362.03;;;15.34;85.39
19624;BME280;9959;49.798;9.928;2023-06-10T01:57:18;99377.13;;;15.24;85.53
19624;BME280;9959;49.798;9.928;2023-06-10T01:59:45;99368.81;;;15.14;86.39
19624;BME280;9959;49.798;9.928;2023-06-10T02:02:12;99363.31;;;15.26;86.02
19624;BME280;9959;49.798;9.928;2023-06-10T02:04:39;99370.13;;;15.12;86.51
19624;BME280;9959;49.798;9.928;2023-06-10T02:07:06;99369.22;;;15.06;86.43
19624;BME280;9959;49.798;9.928;2023-06-10T02:09:33;99375.00;;;14.93;87.99
19624;BME280;9959;49.798;9.928;2023-06-10T02:12:05;99372.94;;;14.83;88.88
19624;BME280;9959;49.798;9.928;2023-06-10T02:14:33;99372.03;;;14.95;87.82
19624;BME280;9959;49.798;9.928;2023-06-10T02:17:00;99378.59;;;15.15;86.22
19624;BME280;9959;49.798;9.928;2023-06-10T02:19:27;99382.72;;;14.84;87.27
19624;BME280;9959;49.798;9.928;2023-06-10T02:21:54;99382.56;;;14.74;88.21
19624;BME280;9959;49.798;9.928;2023-06-10T02:24:21;99381.66;;;14.69;88.76
19624;BME280;9959;49.798;9.928;2023-06-10T02:26:48;99374.72;;;14.61;89.08
19624;BME280;9959;49.798;9.928;2023-06-10T02:29:15;99382.56;;;14.74;88.38
19624;BME280;9959;49.798;9.928;2023-06-10T02:31:42;99382.22;;;14.71;87.94
19624;BME280;9959;49.798;9.928;2023-06-10T02:34:09;99382.53;;;14.57;89.01
19624;BME280;9959;49.798;9.928;2023-06-10T02:36:36;99387.97;;;14.74;88.53
19624;BME280;9959;49.798;9.928;2023-06-10T02:39:03;99386.72;;;14.37;90.64
19624;BME280;9959;49.798;9.928;2023-06-10T02:41:34;99385.66;;;14.49;90.37
19624;BME280;9959;49.798;9.928;2023-06-10T02:44:00;99392.03;;;14.43;90.67
19624;BME280;9959;49.798;9.928;2023-06-10T02:46:27;99385.44;;;14.39;90.86
19624;BME280;9959;49.798;9.928;2023-06-10T02:48:55;99390.63;;;14.41;90.64
19624;BME280;9959;49.798;9.928;2023-06-10T02:51:22;99392.50;;;14.40;91.08
19624;BME280;9959;49.798;9.928;2023-06-10T02:53:49;99397.69;;;14.42;90.76
19624;BME280;9959;49.798;9.928;2023-06-10T02:56:16;99395.69;;;14.37;90.87
19624;BME280;9959;49.798;9.928;2023-06-10T02:58:43;99389.47;;;14.25;91.67
19624;BME280;9959;49.798;9.928;2023-06-10T03:01:10;99391.13;;;14.26;91.87
19624;BME280;9959;49.798;9.928;2023-06-10T03:03:37;99395.31;;;14.17;92.20
19624;BME280;9959;49.798;9.928;2023-06-10T03:06:12;99396.16;;;14.06;92.90
19624;BME280;9959;49.798;9.928;2023-06-10T03:08:39;99393.00;;;14.26;92.33
19624;BME280;9959;49.798;9.928;2023-06-10T03:11:06;99384.84;;;14.09;93.59
19624;BME280;9959;49.798;9.928;2023-06-10T03:13:33;99390.25;;;14.09;93.51
19624;BME280;9959;49.798;9.928;2023-06-10T03:16:00;99380.38;;;14.03;94.26
19624;BME280;9959;49.798;9.928;2023-06-10T03:18:27;99387.09;;;14.29;92.49
19624;BME280;9959;49.798;9.928;2023-06-10T03:20:55;99382.38;;;14.07;93.74
19624;BME280;9959;49.798;9.928;2023-06-10T03:23:22;99387.75;;;14.19;93.33
19624;BME280;9959;49.798;9.928;2023-06-10T03:25:49;99386.19;;;14.23;93.34
19624;BME280;9959;49.798;9.928;2023-06-10T03:28:16;99392.38;;;14.07;94.38
19624;BME280;9959;49.798;9.928;2023-06-10T03:30:43;99394.78;;;13.92;95.79
19624;BME280;9959;49.798;9.928;2023-06-10T03:33:10;99390.50;;;13.96;95.49
19624;BME280;9959;49.798;9.928;2023-06-10T03:35:37;99390.03;;;13.99;95.47
19624;BME280;9959;49.798;9.928;2023-06-10T03:38:03;99390.28;;;13.97;95.69
19624;BME280;9959;49.798;9.928;2023-06-10T03:40:30;99389.38;;;13.92;95.96
19624;BME280;9959;49.798;9.928;2023-06-10T03:42:58;99391.03;;;13.93;96.02
19624;BME280;9959;49.798;9.928;2023-06-10T03:45:25;99389.47;;;13.97;95.70
19624;BME280;9959;49.798;9.928;2023-06-10T03:47:56;99397.56;;;14.08;95.04
19624;BME280;9959;49.798;9.928;2023-06-10T03:50:23;99403.81;;;14.37;93.54
19624;BME280;9959;49.798;9.928;2023-06-10T03:52:50;99405.72;;;14.25;93.23
19624;BME280;9959;49.798;9.928;2023-06-10T03:55:17;99404.09;;;14.24;93.38
19624;BME280;9959;49.798;9.928;2023-06-10T03:57:44;99408.63;;;14.07;94.06
19624;BME280;9959;49.798;9.928;2023-06-10T04:00:11;99412.84;;;14.14;93.71
19624;BME280;9959;49.798;9.928;2023-06-10T04:02:39;99411.78;;;14.15;93.65
19624;BME280;9959;49.798;9.928;2023-06-10T04:05:18;99407.63;;;14.24;92.98
19624;BME280;9959;49.798;9.928;2023-06-10T04:07:45;99413.28;;;14.23;93.65
19624;BME280;9959;49.798;9.928;2023-06-10T04:10:12;99415.13;;;14.34;92.90
19624;BME280;9959;49.798;9.928;2023-06-10T04:12:39;99409.38;;;14.42;91.36
19624;BME280;9959;49.798;9.928;2023-06-10T04:15:06;99407.59;;;14.36;90.99
19624;BME280;9959;49.798;9.928;2023-06-10T04:17:34;99408.75;;;14.40;91.48
19624;BME280;9959;49.798;9.928;2023-06-10T04:20:01;99409.53;;;14.52;90.59
19624;BME280;9959;49.798;9.928;2023-06-10T04:22:30;99415.03;;;14.41;90.68
19624;BME280;9959;49.798;9.928;2023-06-10T04:24:57;99425.00;;;14.40;90.26
19624;BME280;9959;49.798;9.928;2023-06-10T04:27:24;99416.53;;;14.48;90.38
19624;BME280;9959;49.798;9.928;2023-06-10T04:29:51;99422.19;;;14.47;90.33
19624;BME280;9959;49.798;9.928;2023-06-10T04:32:19;99417.34;;;14.49;90.64
19624;BME280;9959;49.798;9.928;2023-06-10T04:34:45;99420.22;;;14.59;90.49
19624;BME280;9959;49.798;9.928;2023-06-10T04:37:12;99424.09;;;14.46;91.41
19624;BME280;9959;49.798;9.928;2023-06-10T04:39:39;99422.53;;;14.39;92.16
19624;BME280;9959;49.798;9.928;2023-06-10T04:42:08;99425.22;;;14.50;91.26
19624;BME280;9959;49.798;9.928;2023-06-10T04:44:34;99428.94;;;14.61;90.89
19624;BME280;9959;49.798;9.928;2023-06-10T04:47:01;99415.88;;;14.58;90.78
19624;BME280;9959;49.798;9.928;2023-06-10T04:49:28;99420.78;;;14.73;90.05
19624;BME280;9959;49.798;9.928;2023-06-10T04:51:56;99430.31;;;14.75;90.16
19624;BME280;9959;49.798;9.928;2023-06-10T04:54:23;99422.81;;;14.82;89.60
19624;BME280;9959;49.798;9.928;2023-06-10T04:56:49;99419.72;;;14.90;88.79
19624;BME280;9959;49.798;9.928;2023-06-10T04:59:16;99422.50;;;14.96;88.07
19624;BME280;9959;49.798;9.928;2023-06-10T05:01:43;99414.97;;;14.98;87.93
19624;BME280;9959;49.798;9.928;2023-06-10T05:04:10;99413.97;;;15.20;86.47
19624;BME280;9959;49.798;9.928;2023-06-10T05:06:37;99423.75;;;15.21;86.08
19624;BME280;9959;49.798;9.928;2023-06-10T05:09:03;99420.50;;;15.41;84.94
19624;BME280;9959;49.798;9.928;2023-06-10T05:11:30;99418.63;;;15.42;84.67
19624;BME280;9959;49.798;9.928;2023-06-10T05:13:58;99421.91;;;15.61;83.68
19624;BME280;9959;49.798;9.928;2023-06-10T05:16:24;99414.34;;;15.63;84.19
19624;BME280;9959;49.798;9.928;2023-06-10T05:18:51;99408.66;;;15.64;83.21
19624;BME280;9959;49.798;9.928;2023-06-10T05:21:18;99417.09;;;15.84;81.70
19624;BME280;9959;49.798;9.928;2023-06-10T05:23:45;99419.84;;;15.89;81.76
19624;BME280;9959;49.798;9.928;2023-06-10T05:26:12;99414.13;;;16.08;80.58
19624;BME280;9959;49.798;9.928;2023-06-10T05:28:39;99410.44;;;16.19;80.08
19624;BME280;9959;49.798;9.928;2023-06-10T05:31:06;99413.09;;;16.14;80.65
19624;BME280;9959;49.798;9.928;2023-06-10T05:33:33;99416.94;;;16.18;80.50
19624;BME280;9959;49.798;9.928;2023-06-10T05:36:00;99413.69;;;16.43;79.44
19624;BME280;9959;49.798;9.928;2023-06-10T05:38:26;99409.56;;;16.35;79.67
19624;BME280;9959;49.798;9.928;2023-06-10T05:40:53;99412.88;;;16.64;78.70
19624;BME280;9959;49.798;9.928;2023-06-10T05:43:20;99414.34;;;16.77;78.46
19624;BME280;9959;49.798;9.928;2023-06-10T05:45:47;99418.44;;;16.79;78.44
19624;BME280;9959;49.798;9.928;2023-06-10T05:48:14;99414.66;;;17.12;75.85
19624;BME280;9959;49.798;9.928;2023-06-10T05:50:40;99416.72;;;17.00;75.96
19624;BME280;9959;49.798;9.928;2023-06-10T05:53:09;99425.31;;;17.56;73.89
19624;BME280;9959;49.798;9.928;2023-06-10T05:55:45;99427.94;;;17.41;73.80
19624;BME280;9959;49.798;9.928;2023-06-10T05:58:13;99432.09;;;17.48;73.80
19624;BME280;9959;49.798;9.928;2023-06-10T06:00:40;99423.44;;;17.62;72.33
19624;BME280;9959;49.798;9.928;2023-06-10T06:03:07;99418.66;;;17.74;72.29
19624;BME280;9959;49.798;9.928;2023-06-10T06:05:37;99416.22;;;17.82;71.84
19624;BME280;9959;49.798;9.928;2023-06-10T06:08:05;99419.53;;;17.89;71.00
19624;BME280;9959;49.798;9.928;2023-06-10T06:10:32;99420.16;;;18.07;70.37
19624;BME280;9959;49.798;9.928;2023-06-10T06:13:00;99426.25;;;18.24;69.51
19624;BME280;9959;49.798;9.928;2023-06-10T06:15:27;99420.31;;;18.47;69.34
19624;BME280;9959;49.798;9.928;2023-06-10T06:17:54;99426.84;;;18.46;69.29
19624;BME280;9959;49.798;9.928;2023-06-10T06:20:22;99431.53;;;18.61;68.94
19624;BME280;9959;49.798;9.928;2023-06-10T06:22:49;99425.31;;;18.81;67.48
19624;BME280;9959;49.798;9.928;2023-06-10T06:25:16;99419.88;;;19.01;65.90
19624;BME280;9959;49.798;9.928;2023-06-10T06:27:43;99423.16;;;19.08;65.59
19624;BME280;9959;49.798;9.928;2023-06-10T06:30:10;99428.63;;;19.13;65.73
19624;BME280;9959;49.798;9.928;2023-06-10T06:32:37;99425.06;;;19.58;63.94
19624;BME280;9959;49.798;9.928;2023-06-10T06:35:04;99427.25;;;19.56;63.55
19624;BME280;9959;49.798;9.928;2023-06-10T06:37:35;99422.00;;;19.75;63.01
19624;BME280;9959;49.798;9.928;2023-06-10T06:40:02;99419.72;;;20.03;62.00
19624;BME280;9959;49.798;9.928;2023-06-10T06:42:30;99421.78;;;20.41;60.05
19624;BME280;9959;49.798;9.928;2023-06-10T06:44:57;99418.94;;;20.56;59.91
19624;BME280;9959;49.798;9.928;2023-06-10T06:47:24;99415.56;;;20.75;57.13
19624;BME280;9959;49.798;9.928;2023-06-10T06:49:51;99425.59;;;21.28;54.96
19624;BME280;9959;49.798;9.928;2023-06-10T06:52:18;99427.84;;;21.16;54.72
19624;BME280;9959;49.798;9.928;2023-06-10T06:54:45;99427.28;;;21.19;55.19
19624;BME280;9959;49.798;9.928;2023-06-10T06:57:12;99421.88;;;21.43;54.06
19624;BME280;9959;49.798;9.928;2023-06-10T06:59:39;99431.19;;;21.71;53.30
19624;BME280;9959;49.798;9.928;2023-06-10T07:02:06;99428.19;;;21.44;53.55
19624;BME280;9959;49.798;9.928;2023-06-10T07:04:33;99425.97;;;21.46;52.96
19624;BME280;9959;49.798;9.928;2023-06-10T07:07:00;99427.75;;;21.60;52.79
19624;BME280;9959;49.798;9.928;2023-06-10T07:09:26;99421.47;;;21.84;52.36
19624;BME280;9959;49.798;9.928;2023-06-10T07:11:54;99424.47;;;21.87;52.23
19624;BME280;9959;49.798;9.928;2023-06-10T07:14:21;99424.31;;;22.03;52.17
19624;BME280;9959;49.798;9.928;2023-06-10T07:16:48;99419.78;;;22.36;51.78
19624;BME280;9959;49.798;9.928;2023-06-10T07:19:16;99414.91;;;22.89;50.22
19624;BME280;9959;49.798;9.928;2023-06-10T07:21:43;99423.75;;;22.86;49.85
19624;BME280;9959;49.798;9.928;2023-06-10T07:24:10;99429.94;;;22.73;49.79
19624;BME280;9959;49.798;9.928;2023-06-10T07:26:37;99433.03;;;22.90;50.00
19624;BME280;9959;49.798;9.928;2023-06-10T07:29:03;99432.78;;;23.05;49.17
19624;BME280;9959;49.798;9.928;2023-06-10T07:31:30;99427.22;;;23.10;49.39
19624;BME280;9959;49.798;9.928;2023-06-10T07:33:57;99422.09;;;23.82;47.65
19624;BME280;9959;49.798;9.928;2023-06-10T07:36:24;99426.28;;;23.34;49.16
19624;BME280;9959;49.798;9.928;2023-06-10T07:38:56;99419.66;;;23.81;47.80
19624;BME280;9959;49.798;9.928;2023-06-10T07:41:24;99422.75;;;23.79;47.37
19624;BME280;9959;49.798;9.928;2023-06-10T07:43:54;99419.66;;;24.08;46.92
19624;BME280;9959;49.798;9.928;2023-06-10T07:46:22;99421.72;;;24.03;47.09
19624;BME280;9959;49.798;9.928;2023-06-10T07:48:49;99419.06;;;23.98;46.86
19624;BME280;9959;49.798;9.928;2023-06-10T07:51:16;99417.44;;;24.24;46.81
19624;BME280;9959;49.798;9.928;2023-06-10T07:53:46;99421.16;;;25.05;44.36
19624;BME280;9959;49.798;9.928;2023-06-10T07:56:13;99411.81;;;24.56;44.56
19624;BME280;9959;49.798;9.928;2023-06-10T07:58:40;99415.97;;;25.57;42.77
19624;BME280;9959;49.798;9.928;2023-06-10T08:01:07;99417.41;;;25.54;43.29
19624;BME280;9959;49.798;9.928;2023-06-10T08:03:34;99419.22;;;25.59;43.11
19624;BME280;9959;49.798;9.928;2023-06-10T08:06:01;99421.25;;;25.22;43.31
19624;BME280;9959;49.798;9.928;2023-06-10T08:08:28;99416.69;;;25.40;42.56
19624;BME280;9959;49.798;9.928;2023-06-10T08:10:54;99420.78;;;25.43;42.99
19624;BME280;9959;49.798;9.928;2023-06-10T08:13:21;99416.31;;;26.35;41.03
19624;BME280;9959;49.798;9.928;2023-06-10T08:15:48;99411.59;;;25.56;42.51
19624;BME280;9959;49.798;9.928;2023-06-10T08:18:17;99412.09;;;25.89;41.96
19624;BME280;9959;49.798;9.928;2023-06-10T08:20:44;99411.09;;;25.85;41.72
19624;BME280;9959;49.798;9.928;2023-06-10T08:23:11;99406.41;;;25.85;42.11
19624;BME280;9959;49.798;9.928;2023-06-10T08:25:38;99404.13;;;25.87;41.79
19624;BME280;9959;49.798;9.928;2023-06-10T08:28:05;99403.81;;;26.37;40.94
19624;BME280;9959;49.798;9.928;2023-06-10T08:30:31;99405.66;;;26.11;41.02
19624;BME280;9959;49.798;9.928;2023-06-10T08:32:59;99404.81;;;25.62;42.04
19624;BME280;9959;49.798;9.928;2023-06-10T08:35:26;99404.78;;;26.33;40.96
19624;BME280;9959;49.798;9.928;2023-06-10T08:37:53;99397.84;;;26.70;40.02
19624;BME280;9959;49.798;9.928;2023-06-10T08:40:20;99399.16;;;26.72;40.55
19624;BME280;9959;49.798;9.928;2023-06-10T08:45:55;99414.72;;;26.59;40.10
19624;BME280;9959;49.798;9.928;2023-06-10T08:48:27;99404.31;;;26.56;39.36
19624;BME280;9959;49.798;9.928;2023-06-10T08:50:57;99401.78;;;27.03;38.93
19624;BME280;9959;49.798;9.928;2023-06-10T08:53:26;99390.69;;;26.94;39.30
19624;BME280;9959;49.798;9.928;2023-06-10T08:55:54;99397.19;;;26.73;39.86
19624;BME280;9959;49.798;9.928;2023-06-10T08:58:23;99396.06;;;26.74;40.12
19624;BME280;9959;49.798;9.928;2023-06-10T09:00:52;99396.47;;;27.45;38.39
19624;BME280;9959;49.798;9.928;2023-06-10T09:03:19;99395.34;;;28.30;36.91
19624;BME280;9959;49.798;9.928;2023-06-10T09:05:48;99395.59;;;27.06;38.86
19624;BME280;9959;49.798;9.928;2023-06-10T09:08:15;99379.63;;;26.94;38.90
19624;BME280;9959;49.798;9.928;2023-06-10T09:10:42;99393.94;;;27.14;38.77
19624;BME280;9959;49.798;9.928;2023-06-10T09:13:09;99391.91;;;27.49;37.96
19624;BME280;9959;49.798;9.928;2023-06-10T09:15:36;99384.53;;;27.70;38.19
19624;BME280;9959;49.798;9.928;2023-06-10T09:18:03;99372.16;;;27.76;37.54
19624;BME280;9959;49.798;9.928;2023-06-10T09:20:31;99380.56;;;27.88;37.83
19624;BME280;9959;49.798;9.928;2023-06-10T09:22:59;99386.38;;;27.49;37.79
19624;BME280;9959;49.798;9.928;2023-06-10T09:25:37;99372.47;;;28.13;36.92
19624;BME280;9959;49.798;9.928;2023-06-10T09:28:05;99375.41;;;28.08;37.01
19624;BME280;9959;49.798;9.928;2023-06-10T09:30:38;99381.97;;;28.33;36.41
19624;BME280;9959;49.798;9.928;2023-06-10T09:33:13;99379.16;;;28.41;36.18
19624;BME280;9959;49.798;9.928;2023-06-10T09:35:48;99382.50;;;27.58;37.40
19624;BME280;9959;49.798;9.928;2023-06-10T09:38:37;99390.25;;;28.41;36.18
19624;BME280;9959;49.798;9.928;2023-06-10T09:41:05;99363.34;;;28.42;36.18
19624;BME280;9959;49.798;9.928;2023-06-10T09:43:44;99377.00;;;28.68;35.60
19624;BME280;9959;49.798;9.928;2023-06-10T09:46:17;99383.09;;;28.82;35.37
19624;BME280;9959;49.798;9.928;2023-06-10T09:48:46;99382.13;;;28.57;35.87
19624;BME280;9959;49.798;9.928;2023-06-10T09:51:14;99369.41;;;28.77;35.58
19624;BME280;9959;49.798;9.928;2023-06-10T09:53:41;99375.66;;;28.94;34.68
19624;BME280;9959;49.798;9.928;2023-06-10T09:56:08;99372.25;;;28.47;35.87
19624;BME280;9959;49.798;9.928;2023-06-10T09:58:39;99367.75;;;29.17;34.44
19624;BME280;9959;49.798;9.928;2023-06-10T10:01:10;99369.56;;;28.39;35.49
19624;BME280;9959;49.798;9.928;2023-06-10T10:03:49;99367.28;;;29.48;33.22
19624;BME280;9959;49.798;9.928;2023-06-10T10:06:18;99368.72;;;29.34;34.37
19624;BME280;9959;49.798;9.928;2023-06-10T10:08:47;99367.31;;;29.27;33.83
19624;BME280;9959;49.798;9.928;2023-06-10T10:11:16;99362.00;;;28.89;34.39
19624;BME280;9959;49.798;9.928;2023-06-10T10:13:48;99363.53;;;28.78;34.17
19624;BME280;9959;49.798;9.928;2023-06-10T10:16:21;99362.38;;;28.38;35.11
19624;BME280;9959;49.798;9.928;2023-06-10T10:18:57;99377.09;;;28.29;35.29
19624;BME280;9959;49.798;9.928;2023-06-10T10:21:31;99372.06;;;29.72;33.08
19624;BME280;9959;49.798;9.928;2023-06-10T10:24:12;99355.31;;;29.23;33.33
19624;BME280;9959;49.798;9.928;2023-06-10T10:26:43;99368.69;;;29.67;32.74
19624;BME280;9959;49.798;9.928;2023-06-10T10:31:42;99359.91;;;29.64;32.56
19624;BME280;9959;49.798;9.928;2023-06-10T10:34:22;99350.06;;;29.55;32.25
19624;BME280;9959;49.798;9.928;2023-06-10T10:36:52;99361.41;;;29.50;32.37
19624;BME280;9959;49.798;9.928;2023-06-10T10:39:19;99348.47;;;29.54;32.38
19624;BME280;9959;49.798;9.928;2023-06-10T10:41:47;99357.69;;;29.58;32.87
19624;BME280;9959;49.798;9.928;2023-06-10T10:44:16;99348.69;;;30.10;31.73
19624;BME280;9959;49.798;9.928;2023-06-10T10:46:44;99356.59;;;29.38;32.24
19624;BME280;9959;49.798;9.928;2023-06-10T10:49:15;99351.28;;;30.03;31.45
19624;BME280;9959;49.798;9.928;2023-06-10T10:51:56;99339.44;;;29.81;31.35
19624;BME280;9959;49.798;9.928;2023-06-10T11:05:00;99338.47;;;29.41;32.04
19624;BME280;9959;49.798;9.928;2023-06-10T11:07:37;99324.28;;;30.68;30.18
19624;BME280;9959;49.798;9.928;2023-06-10T11:10:09;99329.38;;;30.66;30.46
19624;BME280;9959;49.798;9.928;2023-06-10T11:15:13;99322.97;;;31.80;29.10
19624;BME280;9959;49.798;9.928;2023-06-10T11:18:15;99334.50;;;31.19;30.18
19624;BME280;9959;49.798;9.928;2023-06-10T11:25:51;99333.81;;;30.42;30.27
19624;BME280;9959;49.798;9.928;2023-06-10T11:28:19;99329.25;;;29.61;31.39
19624;BME280;9959;49.798;9.928;2023-06-10T11:30:46;99323.66;;;31.02;29.62
19624;BME280;9959;49.798;9.928;2023-06-10T11:33:24;99328.03;;;30.59;30.20
19624;BME280;9959;49.798;9.928;2023-06-10T11:35:52;99331.84;;;30.55;30.35
19624;BME280;9959;49.798;9.928;2023-06-10T11:38:19;99319.25;;;31.13;29.99
19624;BME280;9959;49.798;9.928;2023-06-10T11:40:48;99315.97;;;31.71;28.27
19624;BME280;9959;49.798;9.928;2023-06-10T11:43:19;99313.88;;;31.83;27.77
19624;BME280;9959;49.798;9.928;2023-06-10T11:45:46;99312.72;;;31.37;28.48
19624;BME280;9959;49.798;9.928;2023-06-10T11:48:13;99316.94;;;31.78;27.84
19624;BME280;9959;49.798;9.928;2023-06-10T11:50:40;99315.03;;;30.51;29.90
19624;BME280;9959;49.798;9.928;2023-06-10T11:53:08;99323.31;;;31.79;28.37
19624;BME280;9959;49.798;9.928;2023-06-10T11:55:46;99319.34;;;30.89;28.65
19624;BME280;9959;49.798;9.928;2023-06-10T12:00:52;99316.34;;;30.42;29.16
19624;BME280;9959;49.798;9.928;2023-06-10T12:03:20;99315.41;;;31.81;27.68
19624;BME280;9959;49.798;9.928;2023-06-10T12:06:03;99316.28;;;30.14;29.64
19624;BME280;9959;49.798;9.928;2023-06-10T12:08:31;99311.75;;;30.74;29.52
19624;BME280;9959;49.798;9.928;2023-06-10T12:11:02;99310.63;;;31.97;28.12
19624;BME280;9959;49.798;9.928;2023-06-10T12:13:29;99300.03;;;31.87;27.43
19624;BME280;9959;49.798;9.928;2023-06-10T12:16:09;99302.66;;;32.15;27.60
19624;BME280;9959;49.798;9.928;2023-06-10T12:18:36;99293.78;;;33.02;26.97
19624;BME280;9959;49.798;9.928;2023-06-10T12:21:03;99288.53;;;31.57;28.12
19624;BME280;9959;49.798;9.928;2023-06-10T12:23:59;99283.53;;;30.59;29.51
19624;BME280;9959;49.798;9.928;2023-06-10T12:26:37;99301.25;;;29.66;30.96
19624;BME280;9959;49.798;9.928;2023-06-10T12:34:19;99290.97;;;30.99;29.09
19624;BME280;9959;49.798;9.928;2023-06-10T12:36:49;99276.75;;;32.30;27.44
19624;BME280;9959;49.798;9.928;2023-06-10T12:39:16;99284.84;;;32.54;26.42
19624;BME280;9959;49.798;9.928;2023-06-10T12:41:51;99289.38;;;30.98;28.19
19624;BME280;9959;49.798;9.928;2023-06-10T12:44:27;99289.81;;;31.44;28.02
19624;BME280;9959;49.798;9.928;2023-06-10T12:46:55;99289.56;;;33.12;26.43
19624;BME280;9959;49.798;9.928;2023-06-10T12:49:22;99284.94;;;32.77;26.42
19624;BME280;9959;49.798;9.928;2023-06-10T12:51:49;99282.34;;;32.88;26.27
19624;BME280;9959;49.798;9.928;2023-06-10T12:54:16;99277.31;;;32.20;27.29
19624;BME280;9959;49.798;9.928;2023-06-10T12:56:43;99278.44;;;32.00;27.61
19624;BME280;9959;49.798;9.928;2023-06-10T12:59:10;99268.69;;;30.55;28.97
19624;BME280;9959;49.798;9.928;2023-06-10T13:01:37;99264.50;;;31.17;28.66
19624;BME280;9959;49.798;9.928;2023-06-10T13:04:05;99263.69;;;32.92;26.52
19624;BME280;9959;49.798;9.928;2023-06-10T13:06:36;99262.91;;;32.18;27.56
19624;BME280;9959;49.798;9.928;2023-06-10T13:09:05;99271.75;;;32.39;27.90
19624;BME280;9959;49.798;9.928;2023-06-10T13:11:33;99271.09;;;32.65;26.92
19624;BME280;9959;49.798;9.928;2023-06-10T13:14:01;99268.03;;;33.12;26.77
19624;BME280;9959;49.798;9.928;2023-06-10T13:16:29;99272.34;;;33.29;26.51
19624;BME280;9959;49.798;9.928;2023-06-10T13:18:56;99270.06;;;33.35;26.35
19624;BME280;9959;49.798;9.928;2023-06-10T13:21:23;99265.81;;;33.21;26.73
19624;BME280;9959;49.798;9.928;2023-06-10T13:23:50;99255.25;;;32.30;27.97
19624;BME280;9959;49.798;9.928;2023-06-10T13:26:17;99262.34;;;33.51;26.24
19624;BME280;9959;49.798;9.928;2023-06-10T13:28:44;99255.31;;;33.38;26.33
19624;BME280;9959;49.798;9.928;2023-06-10T13:31:11;99254.34;;;33.04;26.28
19624;BME280;9959;49.798;9.928;2023-06-10T13:33:38;99252.00;;;33.28;26.00
19624;BME280;9959;49.798;9.928;2023-06-10T13:36:05;99254.78;;;34.31;24.78
19624;BME280;9959;49.798;9.928;2023-06-10T13:38:32;99251.56;;;32.65;26.38
19624;BME280;9959;49.798;9.928;2023-06-10T13:40:59;99246.72;;;33.99;25.16
19624;BME280;9959;49.798;9.928;2023-06-10T13:43:30;99242.22;;;34.21;24.96
19624;BME280;9959;49.798;9.928;2023-06-10T13:45:56;99235.16;;;33.74;26.16
19624;BME280;9959;49.798;9.928;2023-06-10T13:48:23;99229.50;;;32.37;27.77
19624;BME280;9959;49.798;9.928;2023-06-10T13:50:50;99235.56;;;34.29;25.50